TimeCDT,TemperatureF,Dew PointF,Humidity,Sea Level PressureIn,VisibilityMPH,Wind Direction,Wind SpeedMPH,Gust SpeedMPH,PrecipitationIn,Events,Conditions,WindDirDegrees,DateUTC
12:14 AM,59.0,50.0,72,29.89,10.0,Calm,Calm,-,N/A,,Scattered Clouds,0,2013-06-17 05:14:00
12:34 AM,60.8,50.0,68,29.89,10.0,WSW,4.6,-,N/A,,Scattered Clouds,250,2013-06-17 05:34:00
12:53 AM,60.8,48.2,63,29.90,10.0,WSW,3.5,-,N/A,,Mostly Cloudy,250,2013-06-17 05:53:00
1:15 AM,59.0,50.0,72,29.90,10.0,West,3.5,-,N/A,,Scattered Clouds,260,2013-06-17 06:15:00
1:34 AM,57.2,50.0,77,29.90,10.0,West,4.6,-,N/A,,Mostly Cloudy,260,2013-06-17 06:34:00
1:35 AM,57.2,48.2,72,29.90,10.0,West,4.6,-,N/A,,Mostly Cloudy,260,2013-06-17 06:35:00
2:14 AM,57.2,48.2,72,29.90,10.0,WSW,4.6,-,N/A,,Clear,250,2013-06-17 07:14:00
2:35 AM,55.4,48.2,77,29.90,10.0,WSW,5.8,-,N/A,,Clear,250,2013-06-17 07:35:00
2:53 AM,55.4,48.2,77,29.90,10.0,West,5.8,-,N/A,,Scattered Clouds,260,2013-06-17 07:53:00
3:14 AM,57.2,50.0,77,29.90,10.0,West,5.8,-,N/A,,Overcast,270,2013-06-17 08:14:00
3:35 AM,55.4,50.0,82,29.90,10.0,West,4.6,-,N/A,,Scattered Clouds,260,2013-06-17 08:35:00
3:53 AM,57.2,50.0,77,29.90,10.0,West,3.5,-,N/A,,Scattered Clouds,260,2013-06-17 08:53:00
4:14 AM,55.4,48.2,77,29.90,10.0,WSW,3.5,-,N/A,,Scattered Clouds,250,2013-06-17 09:14:00
4:35 AM,55.4,48.2,77,29.90,10.0,WSW,4.6,-,N/A,,Scattered Clouds,240,2013-06-17 09:35:00
4:53 AM,55.4,50.0,82,29.90,10.0,Calm,Calm,-,N/A,,Scattered Clouds,0,2013-06-17 09:53:00
5:15 AM,55.4,50.0,82,29.90,10.0,West,3.5,-,N/A,,Clear,270,2013-06-17 10:15:00
5:35 AM,53.6,48.2,82,29.91,10.0,West,4.6,-,N/A,,Clear,260,2013-06-17 10:35:00
5:53 AM,53.6,48.2,82,29.91,10.0,WSW,3.5,-,N/A,,Clear,250,2013-06-17 10:53:00
6:14 AM,53.6,50.0,88,29.92,10.0,WSW,4.6,-,N/A,,Clear,250,2013-06-17 11:14:00
6:35 AM,55.4,50.0,82,29.92,10.0,WSW,4.6,-,N/A,,Clear,250,2013-06-17 11:35:00
6:53 AM,57.2,51.8,82,29.92,10.0,WSW,4.6,-,N/A,,Clear,240,2013-06-17 11:53:00
7:14 AM,57.2,51.8,82,29.92,10.0,West,3.5,-,N/A,,Scattered Clouds,260,2013-06-17 12:14:00
7:35 AM,57.2,51.8,82,29.92,10.0,WSW,4.6,-,N/A,,Mostly Cloudy,250,2013-06-17 12:35:00
7:53 AM,59.0,51.8,77,29.93,10.0,West,5.8,-,N/A,,Mostly Cloudy,260,2013-06-17 12:53:00
8:15 AM,62.6,53.6,72,29.93,10.0,West,5.8,-,N/A,,Mostly Cloudy,270,2013-06-17 13:15:00
8:34 AM,62.6,53.6,72,29.94,10.0,WNW,3.5,-,N/A,,Mostly Cloudy,290,2013-06-17 13:34:00
8:53 AM,62.6,53.6,72,29.94,10.0,WNW,5.8,-,N/A,,Mostly Cloudy,290,2013-06-17 13:53:00
9:15 AM,64.4,53.6,68,29.94,10.0,West,6.9,-,N/A,,Overcast,280,2013-06-17 14:15:00
9:35 AM,64.4,53.6,68,29.94,10.0,WSW,8.1,-,N/A,,Mostly Cloudy,250,2013-06-17 14:35:00
9:52 AM,66.2,53.6,64,29.94,10.0,West,6.9,-,N/A,,Scattered Clouds,260,2013-06-17 14:52:00
10:15 AM,66.2,55.4,68,29.94,10.0,WNW,5.8,-,N/A,,Scattered Clouds,300,2013-06-17 15:15:00
10:35 AM,69.8,53.6,56,29.94,10.0,NNW,11.5,-,N/A,,Scattered Clouds,340,2013-06-17 15:35:00
10:53 AM,69.8,53.6,56,29.94,10.0,NW,9.2,-,N/A,,Scattered Clouds,320,2013-06-17 15:53:00
11:14 AM,69.8,53.6,56,29.95,10.0,NNW,9.2,-,N/A,,Scattered Clouds,340,2013-06-17 16:14:00
11:35 AM,69.8,53.6,56,29.95,10.0,WNW,6.9,-,N/A,,Mostly Cloudy,290,2013-06-17 16:35:00
11:53 AM,69.8,51.8,53,29.95,10.0,NW,8.1,-,N/A,,Scattered Clouds,320,2013-06-17 16:53:00
12:15 PM,69.8,53.6,56,29.96,10.0,NW,8.1,-,N/A,,Mostly Cloudy,310,2013-06-17 17:15:00
12:34 PM,71.6,53.6,53,29.96,10.0,NNW,6.9,-,N/A,,Scattered Clouds,340,2013-06-17 17:34:00
12:53 PM,69.8,53.6,56,29.96,10.0,North,6.9,-,N/A,,Scattered Clouds,350,2013-06-17 17:53:00
1:15 PM,71.6,53.6,53,29.96,10.0,NNW,9.2,-,N/A,,Mostly Cloudy,340,2013-06-17 18:15:00
1:35 PM,69.8,51.8,53,29.97,10.0,NNW,10.4,-,N/A,,Mostly Cloudy,330,2013-06-17 18:35:00
1:52 PM,68.0,53.6,60,29.97,10.0,North,6.9,-,N/A,,Scattered Clouds,10,2013-06-17 18:52:00
2:14 PM,71.6,53.6,53,29.97,10.0,North,3.5,-,N/A,,Clear,360,2013-06-17 19:14:00
2:35 PM,69.8,51.8,53,29.97,10.0,NNW,5.8,-,N/A,,Mostly Cloudy,330,2013-06-17 19:35:00
2:53 PM,69.8,51.8,53,29.97,10.0,NNW,6.9,-,N/A,,Mostly Cloudy,330,2013-06-17 19:53:00
3:15 PM,71.6,53.6,53,29.98,10.0,NW,11.5,-,N/A,,Scattered Clouds,320,2013-06-17 20:15:00
3:34 PM,71.6,53.6,53,29.98,10.0,North,11.5,17.3,N/A,,Mostly Cloudy,360,2013-06-17 20:34:00
3:53 PM,71.6,53.6,53,29.98,10.0,North,8.1,-,N/A,,Scattered Clouds,10,2013-06-17 20:53:00
4:15 PM,71.6,53.6,53,29.97,10.0,North,5.8,-,N/A,,Scattered Clouds,350,2013-06-17 21:15:00
4:35 PM,73.4,53.6,50,29.97,10.0,North,8.1,-,N/A,,Clear,360,2013-06-17 21:35:00
4:52 PM,73.4,53.6,50,29.97,10.0,NNW,9.2,-,N/A,,Clear,330,2013-06-17 21:52:00
5:14 PM,73.4,53.6,50,29.97,10.0,North,6.9,-,N/A,,Scattered Clouds,360,2013-06-17 22:14:00
5:35 PM,71.6,53.6,53,29.97,10.0,North,6.9,-,N/A,,Mostly Cloudy,10,2013-06-17 22:35:00
5:53 PM,69.8,53.6,56,29.98,10.0,NNE,11.5,17.3,N/A,,Overcast,20,2013-06-17 22:53:00
6:15 PM,69.8,53.6,56,29.98,10.0,NE,6.9,-,N/A,,Overcast,40,2013-06-17 23:15:00
6:34 PM,69.8,53.6,56,29.98,10.0,NE,10.4,-,N/A,,Mostly Cloudy,50,2013-06-17 23:34:00
6:52 PM,69.8,55.4,60,29.98,10.0,NE,9.2,16.1,N/A,,Scattered Clouds,40,2013-06-17 23:52:00
7:14 PM,68.0,53.6,60,29.99,10.0,NE,10.4,-,N/A,,Scattered Clouds,40,2013-06-18 00:14:00
7:34 PM,69.8,53.6,56,29.98,10.0,NE,9.2,-,N/A,,Scattered Clouds,50,2013-06-18 00:34:00
7:53 PM,68.0,53.6,60,29.99,10.0,NE,8.1,-,N/A,,Scattered Clouds,50,2013-06-18 00:53:00
8:15 PM,66.2,55.4,68,30.00,10.0,NE,6.9,-,N/A,,Mostly Cloudy,50,2013-06-18 01:15:00
8:34 PM,64.4,55.4,73,30.00,10.0,NE,6.9,-,N/A,,Overcast,40,2013-06-18 01:34:00
8:52 PM,64.4,55.4,73,30.00,10.0,ENE,8.1,-,N/A,,Scattered Clouds,60,2013-06-18 01:52:00
9:14 PM,64.4,55.4,73,30.02,10.0,ENE,6.9,-,N/A,,Mostly Cloudy,60,2013-06-18 02:14:00
9:34 PM,62.6,53.6,72,30.02,10.0,ENE,5.8,-,N/A,,Overcast,70,2013-06-18 02:34:00
9:52 PM,62.6,53.6,72,30.03,10.0,NE,5.8,-,N/A,,Mostly Cloudy,50,2013-06-18 02:52:00
10:15 PM,60.8,53.6,77,30.04,10.0,ENE,5.8,-,N/A,,Mostly Cloudy,60,2013-06-18 03:15:00
10:35 PM,60.8,53.6,77,30.05,10.0,NE,5.8,-,N/A,,Scattered Clouds,50,2013-06-18 03:35:00
10:53 PM,60.8,53.6,77,30.05,10.0,ENE,5.8,-,N/A,,Scattered Clouds,60,2013-06-18 03:53:00
11:15 PM,59.0,53.6,82,30.06,10.0,ENE,5.8,-,N/A,,Scattered Clouds,60,2013-06-18 04:15:00
11:34 PM,59.0,53.6,82,30.06,10.0,ENE,5.8,-,N/A,,Scattered Clouds,60,2013-06-18 04:34:00
11:53 PM,57.2,53.6,88,30.07,10.0,ENE,5.8,-,N/A,,Clear,70,2013-06-18 04:53:00